createdAt,value
2022-12-04T00:01:29.591Z,14.00
2022-12-04T00:04:00.817Z,12.75
2022-12-04T00:06:29.791Z,14.00
2022-12-04T00:08:58.562Z,14.00
2022-12-04T00:11:30.520Z,12.00
2022-12-04T00:14:06.482Z,13.00
2022-12-04T00:16:35.895Z,13.00
2022-12-04T00:19:05.803Z,13.00
2022-12-04T00:21:34.137Z,14.25
2022-12-04T00:24:04.297Z,12.00
2022-12-04T00:26:32.587Z,13.75
2022-12-04T00:29:01.502Z,14.25
2022-12-04T00:31:30.857Z,14.00
2022-12-04T00:34:02.198Z,12.67
2022-12-04T00:36:31.130Z,12.75
2022-12-04T00:39:00.974Z,12.75
2022-12-04T00:41:31.585Z,12.75
2022-12-04T00:44:03.978Z,12.67
2022-12-04T00:46:32.420Z,13.25
2022-12-04T00:49:03.048Z,13.00
2022-12-04T00:51:31.426Z,12.50
2022-12-04T00:54:01.368Z,12.50
2022-12-04T00:56:30.435Z,12.75
2022-12-04T00:59:01.477Z,14.00
2022-12-04T01:01:49.888Z,13.00
2022-12-04T01:04:18.739Z,13.00
2022-12-04T01:06:47.495Z,13.50
2022-12-04T01:09:16.290Z,12.75
2022-12-04T01:11:44.578Z,13.00
2022-12-04T01:14:13.217Z,12.50
2022-12-04T01:16:41.893Z,12.00
2022-12-04T01:19:12.739Z,12.25
2022-12-04T01:21:41.469Z,13.00
2022-12-04T01:24:10.107Z,13.00
2022-12-04T01:26:38.511Z,12.75
2022-12-04T01:29:07.402Z,12.50
2022-12-04T01:31:35.705Z,12.25
2022-12-04T01:34:05.509Z,12.33
2022-12-04T01:36:34.022Z,12.50
2022-12-04T01:39:02.907Z,12.50
2022-12-04T01:41:32.532Z,12.50
2022-12-04T01:44:09.345Z,12.75
2022-12-04T01:46:38.656Z,12.75
2022-12-04T01:49:40.538Z,13.00
2022-12-04T01:52:19.128Z,13.00
2022-12-04T01:54:54.918Z,13.00
2022-12-04T01:57:26.681Z,12.75
2022-12-04T02:00:07.984Z,12.25
2022-12-04T02:02:39.795Z,12.00
2022-12-04T02:05:13.287Z,12.50
2022-12-04T02:07:43.676Z,12.75
2022-12-04T02:10:13.228Z,11.50
2022-12-04T02:12:54.877Z,12.50
2022-12-04T02:15:49.380Z,11.00
2022-12-04T02:18:33.047Z,11.00
2022-12-04T02:21:01.688Z,12.75
2022-12-04T02:23:38.940Z,13.00
2022-12-04T02:26:33.985Z,12.75
2022-12-04T02:29:11.197Z,12.50
2022-12-04T02:31:48.049Z,12.00
2022-12-04T02:34:43.939Z,12.75
2022-12-04T02:37:22.501Z,13.25
2022-12-04T02:39:57.654Z,12.75
2022-12-04T02:42:43.348Z,12.75
2022-12-04T02:45:18.915Z,13.00
2022-12-04T02:47:47.646Z,11.00
2022-12-04T02:50:19.405Z,12.33
2022-12-04T02:52:55.282Z,12.50
2022-12-04T02:55:31.360Z,12.50
2022-12-04T02:58:06.211Z,12.75
2022-12-04T03:00:35.516Z,12.75
2022-12-04T03:03:26.477Z,13.50
2022-12-04T03:05:57.670Z,11.00
2022-12-04T03:08:35.142Z,11.25
2022-12-04T03:11:03.825Z,13.00
2022-12-04T03:13:38.805Z,12.50
2022-12-04T03:16:13.316Z,11.25
2022-12-04T03:18:47.691Z,12.33
2022-12-04T03:21:22.853Z,12.25
2022-12-04T03:23:57.709Z,12.50
2022-12-04T03:26:34.593Z,12.50
2022-12-04T03:29:12.314Z,12.00
2022-12-04T03:31:49.664Z,12.50
2022-12-04T03:34:59.923Z,13.00
2022-12-04T03:37:34.365Z,12.75
2022-12-04T03:40:23.956Z,13.00
2022-12-04T03:42:59.837Z,12.50
2022-12-04T03:45:44.333Z,12.50
2022-12-04T03:48:31.803Z,12.50
2022-12-04T03:51:26.110Z,12.25
2022-12-04T03:54:04.695Z,11.25
2022-12-04T03:56:45.775Z,12.50
2022-12-04T03:59:24.773Z,11.50
2022-12-04T04:01:56.568Z,12.75
2022-12-04T04:04:31.390Z,12.25
2022-12-04T04:07:05.662Z,13.00
2022-12-04T04:09:37.566Z,12.50
2022-12-04T04:12:14.773Z,13.00
2022-12-04T04:15:20.573Z,13.00
2022-12-04T04:18:10.233Z,12.50
2022-12-04T04:21:23.254Z,12.25
2022-12-04T04:24:11.598Z,12.50
2022-12-04T04:26:44.402Z,13.00
2022-12-04T04:29:13.591Z,12.75
2022-12-04T04:31:46.619Z,11.00
2022-12-04T04:34:56.573Z,12.75
2022-12-04T04:37:41.675Z,13.00
2022-12-04T04:40:22.905Z,11.00
2022-12-04T04:42:58.514Z,12.00
2022-12-04T04:45:32.443Z,12.50
2022-12-04T04:48:10.304Z,11.00
2022-12-04T04:50:39.782Z,12.00
2022-12-04T04:53:21.994Z,12.50
2022-12-04T04:55:51.212Z,12.75
2022-12-04T04:58:21.462Z,13.00
2022-12-04T05:01:09.053Z,12.50
2022-12-04T05:03:38.135Z,12.50
2022-12-04T05:06:07.438Z,13.00
2022-12-04T05:08:36.133Z,12.33
2022-12-04T05:11:06.466Z,13.00
2022-12-04T05:13:34.914Z,11.00
2022-12-04T05:16:07.068Z,12.75
2022-12-04T05:18:35.733Z,12.33
2022-12-04T05:21:09.414Z,12.75
2022-12-04T05:23:37.833Z,12.75
2022-12-04T05:26:07.622Z,11.00
2022-12-04T05:28:35.926Z,13.00
2022-12-04T05:31:06.095Z,12.25
2022-12-04T05:33:34.603Z,11.75
2022-12-04T05:36:09.686Z,11.00
2022-12-04T05:38:38.214Z,12.50
2022-12-04T05:41:07.574Z,13.00
2022-12-04T05:43:36.203Z,12.25
2022-12-04T05:46:06.672Z,11.00
2022-12-04T05:48:35.911Z,11.50
2022-12-04T05:51:09.004Z,12.50
2022-12-04T05:53:37.872Z,12.67
2022-12-04T05:56:07.855Z,12.67
2022-12-04T05:58:38.277Z,13.00
2022-12-04T06:01:12.119Z,11.50
2022-12-04T06:03:40.442Z,12.25
2022-12-04T06:06:22.666Z,11.00
2022-12-04T06:08:53.052Z,11.50
2022-12-04T06:11:24.325Z,11.00
2022-12-04T06:13:52.803Z,12.25
2022-12-04T06:16:25.329Z,11.25
2022-12-04T06:18:56.293Z,12.25
2022-12-04T06:21:28.623Z,12.75
2022-12-04T06:23:57.033Z,11.25
2022-12-04T06:26:25.997Z,11.67
2022-12-04T06:28:56.745Z,12.75
2022-12-04T06:31:27.621Z,11.00
2022-12-04T06:33:57.445Z,12.67
2022-12-04T06:36:26.790Z,11.25
2022-12-04T06:38:56.973Z,11.25
2022-12-04T06:41:27.029Z,11.50
2022-12-04T06:43:56.534Z,11.75
2022-12-04T06:46:28.902Z,13.00
2022-12-04T06:48:59.473Z,12.25
2022-12-04T06:51:31.537Z,11.50
2022-12-04T06:54:00.634Z,11.33
2022-12-04T06:56:32.443Z,11.50
2022-12-04T06:59:02.374Z,13.00
2022-12-04T07:01:33.665Z,11.00
2022-12-04T07:04:04.652Z,13.25
2022-12-04T07:06:38.297Z,11.50
2022-12-04T07:09:10.742Z,12.67
2022-12-04T07:11:42.093Z,12.75
2022-12-04T07:14:11.455Z,13.00
2022-12-04T07:16:42.349Z,12.50
2022-12-04T07:19:14.485Z,13.00
2022-12-04T07:21:45.530Z,12.25
2022-12-04T07:24:16.685Z,11.25
2022-12-04T07:26:46.093Z,12.25
2022-12-04T07:29:14.852Z,11.33
2022-12-04T07:31:44.930Z,13.00
2022-12-04T07:34:13.451Z,11.33
2022-12-04T07:36:43.325Z,12.75
2022-12-04T07:39:11.950Z,13.00
2022-12-04T07:41:40.775Z,11.00
2022-12-04T07:44:10.708Z,11.67
2022-12-04T07:46:39.584Z,12.33
2022-12-04T07:49:07.920Z,11.00
2022-12-04T07:51:36.611Z,11.00
2022-12-04T07:54:05.011Z,11.25
2022-12-04T07:56:34.775Z,12.00
2022-12-04T07:59:03.704Z,12.50
2022-12-04T08:01:32.687Z,13.25
2022-12-04T08:04:01.834Z,11.00
2022-12-04T08:06:33.526Z,11.33
2022-12-04T08:09:07.789Z,13.00
2022-12-04T08:11:39.054Z,13.00
2022-12-04T08:14:09.411Z,12.75
2022-12-04T08:16:39.498Z,11.00
2022-12-04T08:19:07.892Z,12.33
2022-12-04T08:21:36.517Z,12.75
2022-12-04T08:24:04.984Z,12.25
2022-12-04T08:26:34.081Z,12.67
2022-12-04T08:29:03.363Z,12.50
2022-12-04T08:31:35.874Z,13.00
2022-12-04T08:34:06.722Z,13.00
2022-12-04T08:36:35.615Z,12.50
2022-12-04T08:39:04.544Z,12.50
2022-12-04T08:41:33.304Z,12.00
2022-12-04T08:44:02.446Z,13.00
2022-12-04T08:46:31.427Z,12.67
2022-12-04T08:48:59.736Z,13.00
2022-12-04T08:51:33.067Z,12.00
2022-12-04T08:54:07.423Z,12.33
2022-12-04T08:56:37.987Z,12.75
2022-12-04T08:59:06.849Z,12.67
2022-12-04T09:01:35.533Z,13.00
2022-12-04T09:04:04.482Z,12.75
2022-12-04T09:06:33.271Z,12.50
2022-12-04T09:09:01.831Z,13.00
2022-12-04T09:11:32.609Z,13.75
2022-12-04T09:14:02.785Z,12.75
2022-12-04T09:16:31.714Z,13.00
2022-12-04T09:19:00.635Z,13.00
2022-12-04T09:21:29.393Z,12.75
2022-12-04T09:23:59.587Z,13.00
2022-12-04T09:26:33.211Z,13.25
2022-12-04T09:29:03.177Z,12.75
2022-12-04T09:31:32.804Z,12.75
2022-12-04T09:34:02.188Z,13.33
2022-12-04T09:36:30.882Z,13.00
2022-12-04T09:38:59.312Z,12.50
2022-12-04T09:41:37.216Z,11.50
2022-12-04T09:44:29.414Z,12.75
2022-12-04T09:47:02.310Z,12.75
2022-12-04T09:49:52.466Z,12.25
2022-12-04T09:52:32.696Z,12.67
2022-12-04T09:55:04.296Z,12.00
2022-12-04T09:57:43.748Z,12.75
2022-12-04T10:00:18.004Z,12.25
2022-12-04T10:03:07.915Z,12.67
2022-12-04T10:05:43.033Z,12.25
2022-12-04T10:08:39.975Z,12.75
2022-12-04T10:11:29.196Z,12.00
2022-12-04T10:14:20.185Z,12.75
2022-12-04T10:17:26.583Z,12.75
2022-12-04T10:20:24.693Z,13.00
2022-12-04T10:23:08.149Z,13.00
2022-12-04T10:25:41.603Z,13.00
2022-12-04T10:28:29.436Z,12.75
2022-12-04T10:31:01.998Z,13.50
2022-12-04T10:33:53.295Z,12.00
2022-12-04T10:36:25.734Z,12.50
2022-12-04T10:39:00.384Z,12.00
2022-12-04T10:42:06.319Z,11.50
2022-12-04T10:44:34.716Z,12.25
2022-12-04T10:47:06.407Z,12.00
2022-12-04T10:49:36.872Z,13.00
2022-12-04T10:52:06.736Z,12.50
2022-12-04T10:54:36.719Z,14.00
2022-12-04T10:57:08.544Z,12.50
2022-12-04T10:59:40.915Z,13.25
2022-12-04T11:02:24.063Z,12.50
2022-12-04T11:04:57.304Z,12.50
2022-12-04T11:07:46.964Z,12.75
2022-12-04T11:10:38.720Z,13.00
2022-12-04T11:13:17.443Z,12.75
2022-12-04T11:15:49.276Z,13.00
2022-12-04T11:18:36.102Z,12.50
2022-12-04T11:21:08.424Z,12.67
2022-12-04T11:23:46.533Z,13.25
2022-12-04T11:26:17.575Z,14.25
2022-12-04T11:28:53.845Z,14.00
2022-12-04T11:31:24.115Z,14.00
2022-12-04T11:33:56.695Z,14.00
2022-12-04T11:36:32.019Z,13.75
2022-12-04T11:39:34.912Z,13.75
2022-12-04T11:42:14.529Z,13.00
2022-12-04T11:44:58.095Z,12.75
2022-12-04T11:47:30.979Z,13.75
2022-12-04T11:50:23.522Z,12.25
2022-12-04T11:53:12.823Z,14.25
2022-12-04T11:56:00.395Z,15.00
2022-12-04T11:58:47.498Z,17.25
2022-12-04T12:01:58.728Z,15.00
2022-12-04T12:04:52.307Z,18.00
2022-12-04T12:07:39.511Z,16.50
2022-12-04T12:10:29.907Z,19.00
2022-12-04T12:13:36.634Z,16.50
2022-12-04T12:16:20.021Z,17.00
2022-12-04T12:19:05.096Z,17.75
2022-12-04T12:22:03.467Z,17.75
2022-12-04T12:24:51.336Z,17.00
2022-12-04T12:27:57.540Z,16.50
2022-12-04T12:30:29.695Z,16.75
2022-12-04T12:33:12.669Z,16.50
2022-12-04T12:36:03.530Z,16.67
2022-12-04T12:38:37.664Z,15.50
2022-12-04T12:41:31.570Z,16.75
2022-12-04T12:44:26.418Z,17.33
2022-12-04T12:46:59.919Z,17.00
2022-12-04T12:49:58.664Z,15.50
2022-12-04T12:52:54.980Z,15.25
2022-12-04T12:55:44.829Z,17.25
2022-12-04T12:58:23.894Z,16.50
2022-12-04T13:01:01.516Z,15.50
2022-12-04T13:03:36.235Z,15.00
2022-12-04T13:06:10.025Z,15.00
2022-12-04T13:08:50.929Z,16.33
2022-12-04T13:11:23.079Z,16.00
2022-12-04T13:14:00.979Z,15.00
2022-12-04T13:16:37.163Z,15.33
2022-12-04T13:19:21.083Z,15.00
2022-12-04T13:22:07.259Z,15.25
2022-12-04T13:24:46.600Z,15.50
2022-12-04T13:27:42.436Z,15.50
2022-12-04T13:30:33.551Z,15.75
2022-12-04T13:33:30.438Z,14.25
2022-12-04T13:36:16.137Z,15.25
2022-12-04T13:38:57.915Z,15.00
2022-12-04T13:41:28.292Z,15.25
2022-12-04T13:44:00.638Z,15.00
2022-12-04T13:46:41.202Z,14.00
2022-12-04T13:49:18.732Z,15.25
2022-12-04T13:51:49.719Z,15.00
2022-12-04T13:54:18.028Z,14.00
2022-12-04T13:56:50.282Z,13.75
2022-12-04T13:59:36.682Z,15.00
2022-12-04T14:02:25.655Z,14.25
2022-12-04T14:05:03.540Z,15.25
2022-12-04T14:07:43.328Z,15.50
2022-12-04T14:10:14.885Z,14.00
2022-12-04T14:12:50.574Z,16.33
2022-12-04T14:15:28.773Z,15.75
2022-12-04T14:18:01.085Z,15.50
2022-12-04T14:20:32.254Z,15.67
2022-12-04T14:23:27.854Z,16.00
2022-12-04T14:25:58.040Z,17.00
2022-12-04T14:28:37.273Z,14.25
2022-12-04T14:31:18.005Z,15.25
2022-12-04T14:33:56.237Z,15.33
2022-12-04T14:36:25.229Z,15.00
2022-12-04T14:39:21.652Z,15.25
2022-12-04T14:41:50.805Z,15.67
2022-12-04T14:44:30.496Z,15.25
2022-12-04T14:47:29.113Z,15.00
2022-12-04T14:50:30.403Z,19.50
2022-12-04T14:53:13.780Z,16.25
2022-12-04T14:56:15.746Z,15.00
2022-12-04T14:58:44.297Z,16.00
2022-12-04T15:01:29.404Z,16.00
2022-12-04T15:04:05.958Z,15.00
2022-12-04T15:06:35.852Z,15.00
2022-12-04T15:09:24.749Z,15.25
2022-12-04T15:12:14.840Z,15.50
2022-12-04T15:14:49.099Z,15.00
2022-12-04T15:17:19.217Z,15.25
2022-12-04T15:19:47.488Z,15.50
2022-12-04T15:22:28.656Z,15.00
2022-12-04T15:24:57.585Z,15.00
2022-12-04T15:27:31.959Z,15.00
2022-12-04T15:30:02.917Z,15.25
2022-12-04T15:32:32.959Z,15.25
2022-12-04T15:35:06.637Z,15.00
2022-12-04T15:37:36.979Z,16.50
2022-12-04T15:40:07.397Z,15.25
2022-12-04T15:42:36.235Z,15.00
2022-12-04T15:45:10.528Z,16.00
2022-12-04T15:47:39.332Z,15.67
2022-12-04T15:50:22.255Z,17.33
2022-12-04T15:53:00.305Z,15.00
2022-12-04T15:55:35.314Z,16.25
2022-12-04T15:58:18.862Z,16.75
2022-12-04T16:00:48.044Z,16.50
2022-12-04T16:03:31.632Z,17.67
2022-12-04T16:06:09.607Z,16.50
2022-12-04T16:08:40.922Z,17.33
2022-12-04T16:11:18.364Z,17.75
2022-12-04T16:14:02.482Z,16.75
2022-12-04T16:16:30.997Z,17.00
2022-12-04T16:19:02.676Z,16.50
2022-12-04T16:21:32.456Z,16.50
2022-12-04T16:24:06.371Z,17.00
2022-12-04T16:26:34.828Z,16.25
2022-12-04T16:29:03.729Z,16.33
2022-12-04T16:31:32.251Z,16.75
2022-12-04T16:34:01.248Z,16.00
2022-12-04T16:36:30.105Z,16.67
2022-12-04T16:38:58.852Z,16.50
2022-12-04T16:41:27.105Z,18.00
2022-12-04T16:43:59.342Z,17.50
2022-12-04T16:46:29.784Z,18.50
2022-12-04T16:49:02.768Z,17.75
2022-12-04T16:51:34.686Z,16.25
2022-12-04T16:54:04.116Z,19.25
2022-12-04T16:56:32.765Z,18.00
2022-12-04T16:59:04.015Z,17.67
2022-12-04T17:01:38.948Z,18.00
2022-12-04T17:04:08.027Z,17.75
2022-12-04T17:06:36.540Z,18.00
2022-12-04T17:09:05.518Z,17.50
2022-12-04T17:11:34.378Z,17.25
2022-12-04T17:14:07.874Z,17.50
2022-12-04T17:16:38.133Z,16.50
2022-12-04T17:19:07.055Z,18.00
2022-12-04T17:21:36.011Z,18.50
2022-12-04T17:24:05.130Z,18.33
2022-12-04T17:26:33.450Z,18.00
2022-12-04T17:29:02.225Z,18.00
2022-12-04T17:31:30.777Z,18.25
2022-12-04T17:34:00.236Z,17.50
2022-12-04T17:36:29.156Z,19.00
2022-12-04T17:39:02.235Z,17.75
2022-12-04T17:41:30.854Z,19.00
2022-12-04T17:44:01.271Z,19.25
2022-12-04T17:46:29.906Z,19.00
2022-12-04T17:49:02.645Z,17.75
2022-12-04T17:51:35.139Z,19.67
2022-12-04T17:54:05.254Z,19.50
2022-12-04T17:56:34.088Z,18.00
2022-12-04T17:59:02.742Z,19.00
2022-12-04T18:01:31.469Z,18.00
2022-12-04T18:04:05.755Z,19.25
2022-12-04T18:06:37.536Z,18.50
2022-12-04T18:09:08.001Z,19.00
2022-12-04T18:11:38.316Z,21.25
2022-12-04T18:14:12.988Z,19.50
2022-12-04T18:16:47.140Z,19.00
2022-12-04T18:19:15.900Z,19.00
2022-12-04T18:21:44.369Z,20.00
2022-12-04T18:24:14.289Z,23.00
2022-12-04T18:26:45.055Z,19.00
2022-12-04T18:29:18.260Z,18.75
2022-12-04T18:31:47.193Z,18.00
2022-12-04T18:34:18.132Z,21.50
2022-12-04T18:36:47.250Z,20.33
2022-12-04T18:39:18.767Z,19.00
2022-12-04T18:41:47.172Z,21.50
2022-12-04T18:44:18.191Z,19.00
2022-12-04T18:46:49.587Z,19.50
2022-12-04T18:49:18.219Z,19.00
2022-12-04T18:51:49.893Z,20.25
2022-12-04T18:54:23.001Z,21.00
2022-12-04T18:56:51.840Z,20.33
2022-12-04T18:59:23.539Z,19.00
2022-12-04T19:01:53.416Z,19.50
2022-12-04T19:04:24.700Z,22.00
2022-12-04T19:06:56.295Z,18.00
2022-12-04T19:09:54.322Z,20.50
2022-12-04T19:12:16.675Z,21.00
2022-12-04T19:14:45.545Z,19.00
2022-12-04T19:17:13.957Z,22.00
2022-12-04T19:19:42.685Z,19.25
2022-12-04T19:22:11.179Z,20.50
2022-12-04T19:24:40.470Z,19.50
2022-12-04T19:27:12.250Z,19.00
2022-12-04T19:29:43.123Z,20.50
2022-12-04T19:32:12.104Z,20.25
2022-12-04T19:34:40.993Z,18.75
2022-12-04T19:37:09.413Z,18.25
2022-12-04T19:39:37.922Z,20.00
2022-12-04T19:42:06.880Z,18.00
2022-12-04T19:44:50.947Z,19.50
2022-12-04T19:47:20.119Z,20.50
2022-12-04T19:49:48.700Z,21.00
2022-12-04T19:52:17.813Z,19.25
2022-12-04T19:54:46.197Z,20.00
2022-12-04T19:57:16.420Z,19.00
2022-12-04T19:59:46.543Z,20.00
2022-12-04T20:02:26.461Z,18.50
2022-12-04T20:04:54.899Z,19.00
2022-12-04T20:07:23.594Z,21.67
2022-12-04T20:09:52.761Z,19.75
2022-12-04T20:12:21.840Z,18.75
2022-12-04T20:14:50.305Z,20.25
2022-12-04T20:17:21.384Z,19.00
2022-12-04T20:19:50.240Z,19.00
2022-12-04T20:22:19.016Z,19.75
2022-12-04T20:24:47.405Z,19.00
2022-12-04T20:27:16.325Z,19.50
2022-12-04T20:29:44.695Z,20.00
2022-12-04T20:32:13.475Z,19.75
2022-12-04T20:34:43.980Z,20.75
2022-12-04T20:37:12.796Z,19.00
2022-12-04T20:39:41.256Z,19.00
2022-12-04T20:42:10.027Z,19.00
2022-12-04T20:44:38.417Z,20.00
2022-12-04T20:47:08.205Z,20.50
2022-12-04T20:49:36.545Z,19.00
2022-12-04T20:52:06.555Z,20.00
2022-12-04T20:54:41.261Z,20.50
2022-12-04T20:57:10.800Z,20.75
2022-12-04T20:59:39.059Z,20.25
2022-12-04T21:02:07.898Z,19.00
2022-12-04T21:04:38.256Z,19.25
2022-12-04T21:07:08.205Z,20.67
2022-12-04T21:09:36.778Z,20.75
2022-12-04T21:12:26.965Z,19.25
2022-12-04T21:15:14.087Z,20.25
2022-12-04T21:17:42.976Z,18.67
2022-12-04T21:20:11.861Z,20.00
2022-12-04T21:22:41.883Z,20.00
2022-12-04T21:25:10.419Z,19.33
2022-12-04T21:27:39.076Z,18.50
2022-12-04T21:30:08.291Z,19.25
2022-12-04T21:32:37.306Z,20.50
2022-12-04T21:35:06.013Z,20.33
2022-12-04T21:37:34.895Z,21.00
2022-12-04T21:40:04.318Z,20.00
2022-12-04T21:42:33.351Z,18.00
2022-12-04T21:45:05.425Z,19.75
2022-12-04T21:47:35.105Z,20.25
2022-12-04T21:50:04.536Z,19.75
2022-12-04T21:52:34.249Z,20.25
2022-12-04T21:55:02.566Z,20.50
2022-12-04T21:57:31.916Z,18.25
2022-12-04T22:00:00.516Z,20.50
2022-12-04T22:02:30.633Z,19.00
2022-12-04T22:04:59.076Z,19.50
2022-12-04T22:07:27.976Z,21.50
2022-12-04T22:09:56.740Z,20.50
2022-12-04T22:12:48.474Z,19.00
2022-12-04T22:15:14.537Z,21.25
2022-12-04T22:17:43.881Z,17.75
2022-12-04T22:20:12.267Z,19.00
2022-12-04T22:22:41.011Z,20.00
2022-12-04T22:25:09.760Z,21.00
2022-12-04T22:27:39.668Z,20.75
2022-12-04T22:30:09.121Z,20.75
2022-12-04T22:32:38.901Z,20.33
2022-12-04T22:35:08.241Z,20.33
2022-12-04T22:37:43.910Z,19.75
2022-12-04T22:40:14.696Z,20.50
2022-12-04T22:42:44.260Z,22.00
2022-12-04T22:45:12.864Z,20.75
2022-12-04T22:47:41.806Z,19.33
2022-12-04T22:50:10.800Z,20.50
2022-12-04T22:52:40.106Z,22.00
2022-12-04T22:55:08.572Z,20.50
2022-12-04T22:57:37.486Z,19.00
2022-12-04T23:00:09.551Z,21.50
2022-12-04T23:02:38.304Z,20.00
2022-12-04T23:05:07.223Z,20.25
2022-12-04T23:08:02.436Z,20.50
2022-12-04T23:10:31.522Z,22.50
2022-12-04T23:13:01.190Z,20.75
2022-12-04T23:15:29.588Z,21.75
2022-12-04T23:17:58.262Z,22.00
2022-12-04T23:20:26.703Z,22.00
2022-12-04T23:22:56.633Z,21.75
2022-12-04T23:25:25.939Z,21.75
2022-12-04T23:27:54.927Z,21.75
2022-12-04T23:30:28.438Z,23.33
2022-12-04T23:32:58.236Z,22.00
2022-12-04T23:35:27.769Z,24.50
2022-12-04T23:37:56.548Z,21.00
2022-12-04T23:40:25.929Z,23.00
2022-12-04T23:42:54.491Z,21.50
2022-12-04T23:45:22.758Z,23.33
2022-12-04T23:47:51.439Z,21.75
2022-12-04T23:50:19.653Z,21.50
2022-12-04T23:52:49.658Z,23.25
2022-12-04T23:55:17.968Z,22.25
2022-12-04T23:57:46.589Z,21.67
